createdAt,value
2022-09-26T00:00:59.643Z,97661.03
2022-09-26T00:03:33.090Z,97665.25
2022-09-26T00:06:07.630Z,97661.03
2022-09-26T00:08:40.819Z,97649.59
2022-09-26T00:11:18.647Z,97650.44
2022-09-26T00:13:57.215Z,97646.94
2022-09-26T00:26:52.591Z,97636.50
2022-09-26T00:29:34.627Z,97630.28
2022-09-26T00:32:07.725Z,97640.19
2022-09-26T00:34:34.274Z,97638.50
2022-09-26T00:37:14.622Z,97635.09
2022-09-26T00:39:47.741Z,97635.09
2022-09-26T00:52:43.581Z,97618.78
2022-09-26T00:55:28.623Z,97619.59
2022-09-26T00:58:08.061Z,97620.44
2022-09-26T01:00:50.635Z,97615.09
2022-09-26T01:03:26.521Z,97615.25
2022-09-26T01:19:58.630Z,97607.50
2022-09-26T01:23:10.936Z,97604.81
2022-09-26T01:26:43.622Z,97604.81
2022-09-26T01:30:12.602Z,97606.38
2022-09-26T01:33:43.619Z,97594.78
2022-09-26T01:47:04.096Z,97579.72
2022-09-26T01:49:53.538Z,97580.72
2022-09-26T01:52:46.619Z,97579.84
2022-09-26T01:55:29.274Z,97579.03
2022-09-26T01:58:17.603Z,97577.03
2022-09-26T02:11:55.607Z,97569.44
2022-09-26T02:14:35.126Z,97557.88
2022-09-26T02:17:20.597Z,97567.91
2022-09-26T02:19:59.742Z,97568.88
2022-09-26T02:22:40.611Z,97566.22
2022-09-26T02:25:15.313Z,97561.00
2022-09-26T02:38:38.570Z,97545.38
2022-09-26T02:41:54.623Z,97551.97
2022-09-26T02:44:47.905Z,97555.66
2022-09-26T02:48:00.833Z,97550.56
2022-09-26T02:50:56.017Z,97554.22
2022-09-26T02:54:13.606Z,97554.22
2022-09-26T03:07:31.597Z,97534.25
2022-09-26T03:10:11.374Z,97535.41
2022-09-26T03:12:51.627Z,97535.66
2022-09-26T03:15:28.142Z,97537.38
2022-09-26T03:18:14.597Z,97530.31
2022-09-26T03:32:07.711Z,97528.34
2022-09-26T03:34:41.423Z,97519.59
2022-09-26T03:37:14.602Z,97515.09
2022-09-26T03:39:47.794Z,97510.03
2022-09-26T03:42:37.599Z,97509.19
2022-09-26T03:45:17.496Z,97515.38
2022-09-26T03:58:53.583Z,97500.47
2022-09-26T04:01:33.685Z,97514.84
2022-09-26T04:04:06.756Z,97501.59
2022-09-26T04:06:40.619Z,97496.25
2022-09-26T04:09:17.188Z,97500.75
2022-09-26T04:11:59.596Z,97511.44
2022-09-26T04:14:44.598Z,97494.72
2022-09-26T04:27:39.570Z,97501.06
2022-09-26T04:30:21.628Z,97497.66
2022-09-26T04:32:58.213Z,97495.69
2022-09-26T04:35:38.604Z,97492.03
2022-09-26T04:38:11.743Z,97500.22
2022-09-26T04:40:42.554Z,97498.53
2022-09-26T04:53:47.560Z,97508.84
2022-09-26T04:56:35.607Z,97513.63
2022-09-26T04:59:09.544Z,97516.59
2022-09-26T05:01:52.635Z,97516.34
2022-09-26T05:04:30.518Z,97516.03
2022-09-26T05:20:52.578Z,97541.03
2022-09-26T05:23:26.405Z,97536.50
2022-09-26T05:25:59.603Z,97539.47
2022-09-26T05:28:32.807Z,97540.59
2022-09-26T05:31:06.609Z,97538.03
2022-09-26T05:33:39.814Z,97538.34
2022-09-26T05:46:30.618Z,97543.13
2022-09-26T05:49:16.627Z,97544.81
2022-09-26T05:51:49.694Z,97548.06
2022-09-26T05:54:25.468Z,97554.09
2022-09-26T05:57:01.293Z,97551.44
2022-09-26T05:59:50.589Z,97543.28
2022-09-26T06:13:01.578Z,97554.81
2022-09-26T06:15:48.838Z,97543.28
2022-09-26T06:18:28.598Z,97546.78
2022-09-26T06:21:02.019Z,97541.72
2022-09-26T06:23:35.624Z,97534.69
2022-09-26T06:40:14.617Z,97537.78
2022-09-26T06:42:54.598Z,97533.25
2022-09-26T06:45:46.394Z,97541.44
2022-09-26T06:48:30.610Z,97537.94
2022-09-26T06:51:18.322Z,97537.78
2022-09-26T06:53:59.627Z,97539.47
2022-09-26T07:07:10.597Z,97543.13
2022-09-26T07:09:43.827Z,97538.03
2022-09-26T07:12:31.590Z,97545.97
2022-09-26T07:15:06.888Z,97542.16
2022-09-26T07:17:39.635Z,97534.94
2022-09-26T07:20:31.716Z,97534.69
2022-09-26T07:33:31.582Z,97524.81
2022-09-26T07:36:14.583Z,97526.78
2022-09-26T07:38:48.787Z,97523.41
2022-09-26T07:41:24.583Z,97522.44
2022-09-26T07:46:58.625Z,97533.81
2022-09-26T07:49:33.751Z,97523.13
2022-09-26T07:59:38.609Z,97543.41
2022-09-26T08:02:45.581Z,97538.91
2022-09-26T08:05:28.506Z,97537.78
2022-09-26T08:08:02.258Z,97545.66
2022-09-26T08:11:02.857Z,97542.13
2022-09-26T08:13:59.340Z,97536.78
2022-09-26T08:27:13.553Z,97548.72
2022-09-26T08:29:53.596Z,97532.69
2022-09-26T08:32:26.870Z,97543.38
2022-09-26T08:35:00.578Z,97531.69
2022-09-26T08:37:33.605Z,97520.84
2022-09-26T08:40:37.624Z,97523.41
2022-09-26T08:54:16.658Z,97518.72
2022-09-26T08:56:56.954Z,97522.09
2022-09-26T08:59:46.603Z,97521.13
2022-09-26T09:02:30.591Z,97523.09
2022-09-26T09:05:26.606Z,97518.59
2022-09-26T09:08:04.081Z,97518.28
2022-09-26T09:21:21.547Z,97504.59
2022-09-26T09:24:46.596Z,97500.66
2022-09-26T09:28:02.457Z,97489.63
2022-09-26T09:30:51.672Z,97488.66
2022-09-26T09:33:35.605Z,97473.28
2022-09-26T09:46:48.570Z,97498.38
2022-09-26T09:49:31.590Z,97495.03
2022-09-26T09:52:25.546Z,97498.63
2022-09-26T09:55:24.990Z,97494.06
2022-09-26T09:58:44.102Z,97489.19
2022-09-26T10:15:12.597Z,97484.00
2022-09-26T10:18:26.849Z,97494.56
2022-09-26T10:21:19.573Z,97487.22
2022-09-26T10:23:53.151Z,97485.53
2022-09-26T10:26:46.561Z,97489.22
2022-09-26T10:29:27.824Z,97480.50
2022-09-26T10:42:32.057Z,97481.41
2022-09-26T10:45:20.566Z,97482.22
2022-09-26T10:48:13.112Z,97475.50
2022-09-26T10:51:37.563Z,97471.28
2022-09-26T10:54:16.581Z,97467.91
2022-09-26T11:07:34.558Z,97460.94
2022-09-26T11:10:30.598Z,97454.72
2022-09-26T11:13:18.054Z,97447.66
2022-09-26T11:16:15.536Z,97452.19
2022-09-26T11:19:08.370Z,97459.41
2022-09-26T11:35:47.595Z,97419.44
2022-09-26T11:38:36.119Z,97410.31
2022-09-26T11:41:49.598Z,97410.78
2022-09-26T11:44:53.151Z,97406.84
2022-09-26T11:48:21.572Z,97399.53
2022-09-26T12:02:03.566Z,97399.66
2022-09-26T12:05:11.382Z,97388.31
2022-09-26T12:08:01.580Z,97392.22
2022-09-26T12:10:46.925Z,97389.06
2022-09-26T12:13:43.599Z,97381.72
2022-09-26T12:27:19.582Z,97363.16
2022-09-26T12:30:07.947Z,97358.78
2022-09-26T12:33:11.584Z,97345.19
2022-09-26T12:35:57.793Z,97342.25
2022-09-26T12:38:57.625Z,97354.38
2022-09-26T12:55:43.545Z,97327.59
2022-09-26T12:58:50.565Z,97310.78
2022-09-26T13:01:48.981Z,97321.16
2022-09-26T13:05:06.575Z,97316.69
2022-09-26T13:07:53.871Z,97320.44
2022-09-26T13:20:49.542Z,97304.44
2022-09-26T13:23:36.549Z,97296.25
2022-09-26T13:26:20.758Z,97299.66
2022-09-26T13:29:18.027Z,97282.53
2022-09-26T13:32:03.557Z,97278.25
2022-09-26T13:34:52.575Z,97276.66
2022-09-26T13:51:07.490Z,97274.47
2022-09-26T13:54:00.583Z,97273.75
2022-09-26T13:56:48.946Z,97276.41
2022-09-26T13:59:56.577Z,97270.53
2022-09-26T14:02:31.806Z,97274.69
2022-09-26T14:05:52.594Z,97267.75
2022-09-26T14:16:03.597Z,97259.84
2022-09-26T14:19:10.597Z,97256.72
2022-09-26T14:22:00.265Z,97254.25
2022-09-26T14:24:44.426Z,97252.03
2022-09-26T14:27:42.196Z,97247.53
2022-09-26T14:30:34.574Z,97247.06
2022-09-26T14:41:06.593Z,97233.91
2022-09-26T14:43:47.580Z,97225.41
2022-09-26T14:46:25.223Z,97227.06
2022-09-26T14:49:10.598Z,97221.03
2022-09-26T14:51:50.513Z,97217.56
2022-09-26T14:54:35.576Z,97219.09
2022-09-26T15:07:54.574Z,97193.91
2022-09-26T15:10:40.718Z,97185.91
2022-09-26T15:13:34.577Z,97183.41
2022-09-26T15:16:23.801Z,97180.25
2022-09-26T15:19:12.629Z,97190.72
2022-09-26T15:36:04.743Z,97176.34
2022-09-26T15:38:47.193Z,97177.78
2022-09-26T15:41:20.738Z,97177.22
2022-09-26T15:43:53.582Z,97172.91
2022-09-26T15:46:26.733Z,97163.19
2022-09-26T15:48:53.393Z,97164.91
2022-09-26T16:01:52.675Z,97159.81
2022-09-26T16:04:35.568Z,97160.34
2022-09-26T16:07:22.610Z,97160.72
2022-09-26T16:10:04.679Z,97159.38
2022-09-26T16:12:39.341Z,97149.97
2022-09-26T16:15:21.575Z,97157.56
2022-09-26T16:55:53.537Z,97139.47
2022-09-26T16:58:33.597Z,97136.44
2022-09-26T17:01:09.072Z,97138.44
2022-09-26T17:03:42.566Z,97130.03
2022-09-26T17:06:15.693Z,97123.34
2022-09-26T17:08:42.289Z,97122.34
2022-09-26T17:21:38.535Z,97121.31
2022-09-26T17:24:26.578Z,97120.69
2022-09-26T17:27:04.472Z,97119.00
2022-09-26T17:29:50.553Z,97117.50
2022-09-26T17:32:28.835Z,97113.28
2022-09-26T17:35:13.565Z,97121.69
2022-09-26T17:48:37.565Z,97121.00
2022-09-26T17:51:11.142Z,97115.81
2022-09-26T17:53:54.402Z,97119.66
2022-09-26T17:56:27.763Z,97116.31
2022-09-26T17:59:01.603Z,97113.81
2022-09-26T18:01:35.072Z,97112.25
2022-09-26T18:04:14.681Z,97118.66
2022-09-26T18:17:25.587Z,97112.28
2022-09-26T18:20:03.764Z,97117.97
2022-09-26T18:22:43.646Z,97109.25
2022-09-26T18:25:21.803Z,97114.94
2022-09-26T18:28:02.558Z,97115.78
2022-09-26T18:30:38.183Z,97111.56
2022-09-26T18:43:31.585Z,97110.91
2022-09-26T18:46:14.614Z,97106.69
2022-09-26T18:48:47.902Z,97104.50
2022-09-26T18:51:21.569Z,97109.19
2022-09-26T18:53:54.757Z,97107.50
2022-09-26T19:10:09.681Z,97088.66
2022-09-26T19:12:45.140Z,97087.16
2022-09-26T19:15:22.652Z,97079.97
2022-09-26T19:17:55.700Z,97083.66
2022-09-26T19:20:29.570Z,97077.78
2022-09-26T19:23:05.520Z,97092.19
2022-09-26T19:25:44.085Z,97080.63
2022-09-26T19:35:33.537Z,97071.88
2022-09-26T19:38:26.389Z,97069.88
2022-09-26T19:41:01.704Z,97069.19
2022-09-26T19:43:36.576Z,97062.31
2022-09-26T19:46:17.453Z,97065.84
2022-09-26T19:48:59.582Z,97060.78
2022-09-26T20:02:21.600Z,97065.47
2022-09-26T20:04:54.776Z,97062.94
2022-09-26T20:07:21.382Z,97052.38
2022-09-26T20:10:01.573Z,97065.13
2022-09-26T20:12:34.682Z,97064.41
2022-09-26T20:15:01.274Z,97057.38
2022-09-26T20:31:26.636Z,97033.06
2022-09-26T20:33:59.722Z,97027.88
2022-09-26T20:36:37.562Z,97034.38
2022-09-26T20:39:16.768Z,97026.50
2022-09-26T20:41:58.586Z,97028.84
2022-09-26T20:44:31.765Z,97023.81
2022-09-26T20:57:20.520Z,97017.38
2022-09-26T21:00:00.578Z,97015.03
2022-09-26T21:02:38.447Z,97015.03
2022-09-26T21:05:25.429Z,97006.31
2022-09-26T21:08:01.097Z,97006.63
2022-09-26T21:10:36.549Z,97003.94
2022-09-26T21:23:49.565Z,96991.78
2022-09-26T21:26:25.424Z,96991.28
2022-09-26T21:29:01.580Z,96988.59
2022-09-26T21:31:35.423Z,96982.06
2022-09-26T21:34:09.554Z,96979.41
2022-09-26T21:50:57.584Z,96974.38
2022-09-26T21:53:47.557Z,96966.34
2022-09-26T21:56:26.807Z,96962.97
2022-09-26T21:59:06.565Z,96950.59
2022-09-26T22:01:39.781Z,96947.91
2022-09-26T22:04:06.446Z,96944.22
2022-09-26T22:17:03.566Z,96931.47
2022-09-26T22:19:43.571Z,96924.75
2022-09-26T22:22:16.743Z,96923.06
2022-09-26T22:24:43.374Z,96920.38
2022-09-26T22:27:23.565Z,96913.69
2022-09-26T22:29:56.899Z,96915.00
2022-09-26T22:42:46.510Z,96891.97
2022-09-26T22:45:26.550Z,96892.47
2022-09-26T22:47:59.821Z,96888.13
2022-09-26T22:50:33.553Z,96880.09
2022-09-26T22:53:06.650Z,96877.59
2022-09-26T22:55:33.260Z,96873.38
2022-09-26T23:09:15.661Z,96868.00
2022-09-26T23:11:58.418Z,96866.34
2022-09-26T23:14:31.710Z,96866.34
2022-09-26T23:17:04.638Z,96863.69
2022-09-26T23:19:37.754Z,96853.97
2022-09-26T23:22:04.434Z,96852.13
2022-09-26T23:24:44.571Z,96843.94
2022-09-26T23:37:55.550Z,96823.56
2022-09-26T23:40:28.720Z,96824.53
2022-09-26T23:42:55.408Z,96825.53
2022-09-26T23:45:35.554Z,96815.84
2022-09-26T23:48:08.773Z,96817.69
2022-09-26T23:50:35.482Z,96815.16
